sensor_id;sensor_type;location;lat;lon;timestamp;P1;durP1;ratioP1;P2;durP2;ratioP2
29838;SDS011;18669;53.356;-1.464;2022-11-30T00:00:56;22.02;;;9.90;;
29838;SDS011;18669;53.356;-1.464;2022-11-30T00:03:23;24.45;;;10.02;;
29838;SDS011;18669;53.356;-1.464;2022-11-30T00:05:50;19.48;;;9.32;;
29838;SDS011;18669;53.356;-1.464;2022-11-30T00:08:17;26.73;;;10.50;;
29838;SDS011;18669;53.356;-1.464;2022-11-30T00:10:43;21.67;;;10.80;;
29838;SDS011;18669;53.356;-1.464;2022-11-30T00:13:10;23.75;;;10.35;;
29838;SDS011;18669;53.356;-1.464;2022-11-30T00:15:36;28.08;;;10.30;;
29838;SDS011;18669;53.356;-1.464;2022-11-30T00:20:28;27.45;;;10.30;;
29838;SDS011;18669;53.356;-1.464;2022-11-30T00:22:55;23.95;;;10.32;;
29838;SDS011;18669;53.356;-1.464;2022-11-30T00:25:22;28.33;;;11.25;;
29838;SDS011;18669;53.356;-1.464;2022-11-30T00:27:49;26.00;;;10.88;;
29838;SDS011;18669;53.356;-1.464;2022-11-30T00:30:15;26.40;;;11.25;;
29838;SDS011;18669;53.356;-1.464;2022-11-30T00:35:07;27.00;;;11.55;;
29838;SDS011;18669;53.356;-1.464;2022-11-30T00:37:34;24.73;;;10.88;;
29838;SDS011;18669;53.356;-1.464;2022-11-30T00:40:00;28.55;;;11.45;;
29838;SDS011;18669;53.356;-1.464;2022-11-30T00:42:26;28.42;;;12.18;;
29838;SDS011;18669;53.356;-1.464;2022-11-30T00:44:53;27.88;;;11.85;;
29838;SDS011;18669;53.356;-1.464;2022-11-30T00:47:19;26.27;;;11.50;;
29838;SDS011;18669;53.356;-1.464;2022-11-30T00:49:46;24.92;;;11.25;;
29838;SDS011;18669;53.356;-1.464;2022-11-30T00:52:12;24.52;;;11.60;;
29838;SDS011;18669;53.356;-1.464;2022-11-30T00:54:38;26.33;;;12.32;;
29838;SDS011;18669;53.356;-1.464;2022-11-30T00:57:04;30.25;;;13.00;;
29838;SDS011;18669;53.356;-1.464;2022-11-30T00:59:30;30.25;;;12.18;;
29838;SDS011;18669;53.356;-1.464;2022-11-30T01:01:56;27.52;;;11.68;;
29838;SDS011;18669;53.356;-1.464;2022-11-30T01:04:22;26.45;;;11.80;;
29838;SDS011;18669;53.356;-1.464;2022-11-30T01:06:48;26.67;;;10.93;;
29838;SDS011;18669;53.356;-1.464;2022-11-30T01:09:14;30.73;;;12.20;;
29838;SDS011;18669;53.356;-1.464;2022-11-30T01:11:40;29.50;;;12.68;;
29838;SDS011;18669;53.356;-1.464;2022-11-30T01:14:07;24.30;;;11.02;;
29838;SDS011;18669;53.356;-1.464;2022-11-30T01:16:33;28.25;;;11.85;;
29838;SDS011;18669;53.356;-1.464;2022-11-30T01:18:59;23.63;;;12.02;;
29838;SDS011;18669;53.356;-1.464;2022-11-30T01:21:26;24.15;;;11.38;;
29838;SDS011;18669;53.356;-1.464;2022-11-30T01:23:54;26.73;;;11.63;;
29838;SDS011;18669;53.356;-1.464;2022-11-30T01:26:21;22.15;;;10.73;;
29838;SDS011;18669;53.356;-1.464;2022-11-30T01:28:49;26.25;;;11.68;;
29838;SDS011;18669;53.356;-1.464;2022-11-30T01:31:17;27.55;;;11.25;;
29838;SDS011;18669;53.356;-1.464;2022-11-30T01:33:48;27.02;;;11.32;;
29838;SDS011;18669;53.356;-1.464;2022-11-30T01:36:17;27.58;;;10.70;;
29838;SDS011;18669;53.356;-1.464;2022-11-30T01:38:49;26.70;;;11.20;;
29838;SDS011;18669;53.356;-1.464;2022-11-30T01:41:20;26.80;;;11.15;;
29838;SDS011;18669;53.356;-1.464;2022-11-30T01:43:56;20.38;;;10.50;;
29838;SDS011;18669;53.356;-1.464;2022-11-30T01:46:43;23.17;;;10.90;;
29838;SDS011;18669;53.356;-1.464;2022-11-30T01:49:24;29.15;;;11.48;;
29838;SDS011;18669;53.356;-1.464;2022-11-30T01:51:59;25.00;;;10.60;;
29838;SDS011;18669;53.356;-1.464;2022-11-30T01:54:42;24.63;;;10.52;;
29838;SDS011;18669;53.356;-1.464;2022-11-30T01:57:18;28.42;;;11.48;;
29838;SDS011;18669;53.356;-1.464;2022-11-30T01:59:51;21.85;;;10.25;;
29838;SDS011;18669;53.356;-1.464;2022-11-30T02:02:21;26.20;;;10.20;;
29838;SDS011;18669;53.356;-1.464;2022-11-30T02:04:55;22.48;;;10.25;;
29838;SDS011;18669;53.356;-1.464;2022-11-30T02:07:21;24.92;;;11.20;;
29838;SDS011;18669;53.356;-1.464;2022-11-30T02:12:26;25.65;;;10.43;;
29838;SDS011;18669;53.356;-1.464;2022-11-30T02:15:14;24.67;;;9.90;;
29838;SDS011;18669;53.356;-1.464;2022-11-30T02:17:53;24.38;;;9.82;;
29838;SDS011;18669;53.356;-1.464;2022-11-30T02:20:40;22.30;;;10.55;;
29838;SDS011;18669;53.356;-1.464;2022-11-30T02:29:03;21.83;;;9.63;;
29838;SDS011;18669;53.356;-1.464;2022-11-30T02:34:11;23.90;;;9.95;;
29838;SDS011;18669;53.356;-1.464;2022-11-30T02:36:40;22.08;;;9.82;;
29838;SDS011;18669;53.356;-1.464;2022-11-30T02:39:08;21.10;;;10.38;;
29838;SDS011;18669;53.356;-1.464;2022-11-30T02:41:35;22.35;;;10.40;;
29838;SDS011;18669;53.356;-1.464;2022-11-30T02:44:02;19.60;;;9.48;;
29838;SDS011;18669;53.356;-1.464;2022-11-30T02:46:41;19.50;;;9.18;;
29838;SDS011;18669;53.356;-1.464;2022-11-30T02:49:18;20.02;;;9.48;;
29838;SDS011;18669;53.356;-1.464;2022-11-30T02:51:50;15.43;;;8.00;;
29838;SDS011;18669;53.356;-1.464;2022-11-30T02:54:19;17.92;;;8.05;;
29838;SDS011;18669;53.356;-1.464;2022-11-30T02:59:12;17.77;;;8.03;;
29838;SDS011;18669;53.356;-1.464;2022-11-30T03:04:04;18.08;;;7.85;;
29838;SDS011;18669;53.356;-1.464;2022-11-30T03:08:57;17.55;;;8.70;;
29838;SDS011;18669;53.356;-1.464;2022-11-30T03:11:23;22.50;;;9.20;;
29838;SDS011;18669;53.356;-1.464;2022-11-30T03:13:50;19.05;;;8.90;;
29838;SDS011;18669;53.356;-1.464;2022-11-30T03:18:42;17.08;;;7.85;;
29838;SDS011;18669;53.356;-1.464;2022-11-30T03:21:09;20.80;;;8.40;;
29838;SDS011;18669;53.356;-1.464;2022-11-30T03:23:37;16.15;;;8.13;;
29838;SDS011;18669;53.356;-1.464;2022-11-30T03:26:03;22.73;;;8.13;;
29838;SDS011;18669;53.356;-1.464;2022-11-30T03:28:31;19.63;;;8.55;;
29838;SDS011;18669;53.356;-1.464;2022-11-30T03:30:59;21.63;;;9.07;;
29838;SDS011;18669;53.356;-1.464;2022-11-30T03:36:00;19.42;;;8.98;;
29838;SDS011;18669;53.356;-1.464;2022-11-30T03:38:29;16.30;;;8.43;;
29838;SDS011;18669;53.356;-1.464;2022-11-30T03:40:58;16.70;;;8.00;;
29838;SDS011;18669;53.356;-1.464;2022-11-30T03:43:26;17.08;;;8.57;;
29838;SDS011;18669;53.356;-1.464;2022-11-30T03:48:23;21.25;;;8.43;;
29838;SDS011;18669;53.356;-1.464;2022-11-30T03:50:49;17.30;;;8.85;;
29838;SDS011;18669;53.356;-1.464;2022-11-30T03:53:16;14.10;;;7.03;;
29838;SDS011;18669;53.356;-1.464;2022-11-30T03:55:50;15.65;;;7.35;;
29838;SDS011;18669;53.356;-1.464;2022-11-30T03:58:31;16.40;;;7.45;;
29838;SDS011;18669;53.356;-1.464;2022-11-30T04:01:00;17.13;;;7.88;;
29838;SDS011;18669;53.356;-1.464;2022-11-30T04:03:28;18.40;;;8.48;;
29838;SDS011;18669;53.356;-1.464;2022-11-30T04:05:56;17.17;;;8.02;;
29838;SDS011;18669;53.356;-1.464;2022-11-30T04:08:23;19.60;;;9.52;;
29838;SDS011;18669;53.356;-1.464;2022-11-30T04:10:50;18.08;;;8.50;;
29838;SDS011;18669;53.356;-1.464;2022-11-30T04:13:18;19.17;;;8.60;;
29838;SDS011;18669;53.356;-1.464;2022-11-30T04:15:45;19.80;;;8.88;;
29838;SDS011;18669;53.356;-1.464;2022-11-30T04:18:13;17.42;;;8.57;;
29838;SDS011;18669;53.356;-1.464;2022-11-30T04:20:39;18.70;;;9.27;;
29838;SDS011;18669;53.356;-1.464;2022-11-30T04:23:07;20.98;;;9.15;;
29838;SDS011;18669;53.356;-1.464;2022-11-30T04:25:36;15.95;;;8.60;;
29838;SDS011;18669;53.356;-1.464;2022-11-30T04:28:02;18.63;;;8.48;;
29838;SDS011;18669;53.356;-1.464;2022-11-30T04:30:28;19.15;;;8.45;;
29838;SDS011;18669;53.356;-1.464;2022-11-30T04:32:57;15.40;;;7.82;;
29838;SDS011;18669;53.356;-1.464;2022-11-30T04:35:24;14.07;;;6.97;;
29838;SDS011;18669;53.356;-1.464;2022-11-30T04:40:16;15.25;;;7.05;;
29838;SDS011;18669;53.356;-1.464;2022-11-30T04:42:42;12.60;;;6.90;;
29838;SDS011;18669;53.356;-1.464;2022-11-30T04:45:08;12.52;;;7.35;;
29838;SDS011;18669;53.356;-1.464;2022-11-30T04:47:35;11.18;;;6.82;;
29838;SDS011;18669;53.356;-1.464;2022-11-30T04:50:02;11.55;;;6.25;;
29838;SDS011;18669;53.356;-1.464;2022-11-30T04:52:29;16.13;;;7.45;;
29838;SDS011;18669;53.356;-1.464;2022-11-30T04:57:21;12.30;;;6.25;;
29838;SDS011;18669;53.356;-1.464;2022-11-30T04:59:48;14.73;;;7.68;;
29838;SDS011;18669;53.356;-1.464;2022-11-30T05:04:40;7.82;;;5.22;;
29838;SDS011;18669;53.356;-1.464;2022-11-30T05:07:06;14.20;;;5.90;;
29838;SDS011;18669;53.356;-1.464;2022-11-30T05:09:32;12.15;;;6.88;;
29838;SDS011;18669;53.356;-1.464;2022-11-30T05:14:24;14.40;;;6.63;;
29838;SDS011;18669;53.356;-1.464;2022-11-30T05:19:16;15.00;;;6.35;;
29838;SDS011;18669;53.356;-1.464;2022-11-30T05:21:43;12.70;;;6.03;;
29838;SDS011;18669;53.356;-1.464;2022-11-30T05:24:09;11.75;;;6.10;;
29838;SDS011;18669;53.356;-1.464;2022-11-30T05:26:36;15.45;;;6.65;;
29838;SDS011;18669;53.356;-1.464;2022-11-30T05:29:03;12.73;;;6.32;;
29838;SDS011;18669;53.356;-1.464;2022-11-30T05:31:30;12.13;;;5.70;;
29838;SDS011;18669;53.356;-1.464;2022-11-30T05:33:57;11.18;;;5.88;;
29838;SDS011;18669;53.356;-1.464;2022-11-30T05:36:24;12.85;;;6.07;;
29838;SDS011;18669;53.356;-1.464;2022-11-30T05:38:50;11.82;;;5.93;;
29838;SDS011;18669;53.356;-1.464;2022-11-30T05:41:16;12.05;;;6.40;;
29838;SDS011;18669;53.356;-1.464;2022-11-30T05:43:42;17.75;;;6.78;;
29838;SDS011;18669;53.356;-1.464;2022-11-30T05:46:09;13.07;;;7.10;;
29838;SDS011;18669;53.356;-1.464;2022-11-30T05:48:36;13.68;;;6.25;;
29838;SDS011;18669;53.356;-1.464;2022-11-30T05:51:06;16.95;;;8.30;;
29838;SDS011;18669;53.356;-1.464;2022-11-30T05:53:36;16.10;;;6.95;;
29838;SDS011;18669;53.356;-1.464;2022-11-30T05:56:04;18.58;;;7.85;;
29838;SDS011;18669;53.356;-1.464;2022-11-30T05:58:31;13.35;;;6.97;;
29838;SDS011;18669;53.356;-1.464;2022-11-30T06:01:00;13.55;;;6.53;;
29838;SDS011;18669;53.356;-1.464;2022-11-30T06:05:53;16.17;;;7.00;;
29838;SDS011;18669;53.356;-1.464;2022-11-30T06:08:20;13.23;;;6.13;;
29838;SDS011;18669;53.356;-1.464;2022-11-30T06:10:46;11.68;;;6.05;;
29838;SDS011;18669;53.356;-1.464;2022-11-30T06:15:39;13.02;;;6.93;;
29838;SDS011;18669;53.356;-1.464;2022-11-30T06:18:05;13.95;;;6.95;;
29838;SDS011;18669;53.356;-1.464;2022-11-30T06:20:32;17.65;;;8.35;;
29838;SDS011;18669;53.356;-1.464;2022-11-30T06:22:59;15.43;;;7.72;;
29838;SDS011;18669;53.356;-1.464;2022-11-30T06:27:51;18.85;;;7.78;;
29838;SDS011;18669;53.356;-1.464;2022-11-30T06:32:44;13.52;;;7.07;;
29838;SDS011;18669;53.356;-1.464;2022-11-30T06:35:11;11.27;;;5.88;;
29838;SDS011;18669;53.356;-1.464;2022-11-30T06:37:38;14.35;;;7.13;;
29838;SDS011;18669;53.356;-1.464;2022-11-30T06:40:04;16.77;;;6.53;;
29838;SDS011;18669;53.356;-1.464;2022-11-30T06:42:31;15.57;;;7.35;;
29838;SDS011;18669;53.356;-1.464;2022-11-30T06:44:58;16.27;;;7.40;;
29838;SDS011;18669;53.356;-1.464;2022-11-30T06:47:24;14.63;;;6.72;;
29838;SDS011;18669;53.356;-1.464;2022-11-30T06:49:52;15.20;;;7.05;;
29838;SDS011;18669;53.356;-1.464;2022-11-30T06:52:18;12.77;;;6.60;;
29838;SDS011;18669;53.356;-1.464;2022-11-30T06:57:17;13.93;;;6.60;;
29838;SDS011;18669;53.356;-1.464;2022-11-30T06:59:43;12.15;;;5.70;;
29838;SDS011;18669;53.356;-1.464;2022-11-30T07:02:13;14.63;;;6.15;;
29838;SDS011;18669;53.356;-1.464;2022-11-30T07:04:41;12.82;;;6.25;;
29838;SDS011;18669;53.356;-1.464;2022-11-30T07:07:08;11.30;;;5.85;;
29838;SDS011;18669;53.356;-1.464;2022-11-30T07:09:34;9.45;;;4.75;;
29838;SDS011;18669;53.356;-1.464;2022-11-30T07:14:26;12.35;;;6.40;;
29838;SDS011;18669;53.356;-1.464;2022-11-30T07:16:53;16.10;;;5.72;;
29838;SDS011;18669;53.356;-1.464;2022-11-30T07:22:07;11.30;;;6.15;;
29838;SDS011;18669;53.356;-1.464;2022-11-30T07:24:33;12.85;;;6.28;;
29838;SDS011;18669;53.356;-1.464;2022-11-30T07:27:18;15.23;;;6.70;;
29838;SDS011;18669;53.356;-1.464;2022-11-30T07:29:46;14.40;;;6.18;;
29838;SDS011;18669;53.356;-1.464;2022-11-30T07:32:13;22.30;;;10.00;;
29838;SDS011;18669;53.356;-1.464;2022-11-30T07:34:39;22.15;;;13.55;;
29838;SDS011;18669;53.356;-1.464;2022-11-30T07:37:05;14.65;;;7.35;;
29838;SDS011;18669;53.356;-1.464;2022-11-30T07:39:31;18.17;;;6.95;;
29838;SDS011;18669;53.356;-1.464;2022-11-30T07:41:58;13.77;;;6.40;;
29838;SDS011;18669;53.356;-1.464;2022-11-30T07:44:24;15.15;;;6.43;;
29838;SDS011;18669;53.356;-1.464;2022-11-30T07:49:17;14.17;;;6.93;;
29838;SDS011;18669;53.356;-1.464;2022-11-30T07:51:43;14.35;;;7.90;;
29838;SDS011;18669;53.356;-1.464;2022-11-30T07:54:10;19.27;;;7.78;;
29838;SDS011;18669;53.356;-1.464;2022-11-30T07:56:36;13.88;;;6.93;;
29838;SDS011;18669;53.356;-1.464;2022-11-30T07:59:08;15.13;;;7.32;;
29838;SDS011;18669;53.356;-1.464;2022-11-30T08:01:35;15.18;;;7.35;;
29838;SDS011;18669;53.356;-1.464;2022-11-30T08:04:06;16.35;;;7.47;;
29838;SDS011;18669;53.356;-1.464;2022-11-30T08:06:32;17.83;;;7.53;;
29838;SDS011;18669;53.356;-1.464;2022-11-30T08:11:29;16.88;;;7.03;;
29838;SDS011;18669;53.356;-1.464;2022-11-30T08:14:01;18.55;;;7.03;;
29838;SDS011;18669;53.356;-1.464;2022-11-30T08:16:28;20.15;;;7.55;;
29838;SDS011;18669;53.356;-1.464;2022-11-30T08:18:55;17.45;;;7.05;;
29838;SDS011;18669;53.356;-1.464;2022-11-30T08:21:23;17.67;;;7.38;;
29838;SDS011;18669;53.356;-1.464;2022-11-30T08:23:50;19.30;;;8.18;;
29838;SDS011;18669;53.356;-1.464;2022-11-30T08:26:19;21.33;;;8.13;;
29838;SDS011;18669;53.356;-1.464;2022-11-30T08:28:48;29.73;;;9.18;;
29838;SDS011;18669;53.356;-1.464;2022-11-30T08:31:19;22.40;;;8.68;;
29838;SDS011;18669;53.356;-1.464;2022-11-30T08:33:46;21.67;;;8.55;;
29838;SDS011;18669;53.356;-1.464;2022-11-30T08:36:14;29.73;;;9.25;;
29838;SDS011;18669;53.356;-1.464;2022-11-30T08:38:42;25.88;;;8.52;;
29838;SDS011;18669;53.356;-1.464;2022-11-30T08:41:11;24.42;;;9.50;;
29838;SDS011;18669;53.356;-1.464;2022-11-30T08:43:38;25.45;;;8.35;;
29838;SDS011;18669;53.356;-1.464;2022-11-30T08:46:06;29.00;;;9.93;;
29838;SDS011;18669;53.356;-1.464;2022-11-30T08:48:35;32.42;;;10.02;;
29838;SDS011;18669;53.356;-1.464;2022-11-30T08:51:02;25.52;;;9.55;;
29838;SDS011;18669;53.356;-1.464;2022-11-30T08:53:30;31.77;;;10.13;;
29838;SDS011;18669;53.356;-1.464;2022-11-30T08:55:57;31.23;;;10.38;;
29838;SDS011;18669;53.356;-1.464;2022-11-30T08:58:26;24.30;;;9.75;;
29838;SDS011;18669;53.356;-1.464;2022-11-30T09:00:54;30.25;;;9.88;;
29838;SDS011;18669;53.356;-1.464;2022-11-30T09:03:29;42.15;;;10.50;;
29838;SDS011;18669;53.356;-1.464;2022-11-30T09:06:01;22.98;;;9.60;;
29838;SDS011;18669;53.356;-1.464;2022-11-30T09:08:32;31.67;;;12.10;;
29838;SDS011;18669;53.356;-1.464;2022-11-30T09:11:06;32.35;;;11.13;;
29838;SDS011;18669;53.356;-1.464;2022-11-30T09:13:43;28.00;;;10.73;;
29838;SDS011;18669;53.356;-1.464;2022-11-30T09:16:10;30.92;;;11.65;;
29838;SDS011;18669;53.356;-1.464;2022-11-30T09:18:37;28.42;;;9.85;;
29838;SDS011;18669;53.356;-1.464;2022-11-30T09:21:07;25.48;;;10.07;;
29838;SDS011;18669;53.356;-1.464;2022-11-30T09:23:36;28.23;;;11.52;;
29838;SDS011;18669;53.356;-1.464;2022-11-30T09:26:04;28.52;;;10.70;;
29838;SDS011;18669;53.356;-1.464;2022-11-30T09:28:38;29.13;;;10.77;;
29838;SDS011;18669;53.356;-1.464;2022-11-30T09:31:05;24.33;;;10.25;;
29838;SDS011;18669;53.356;-1.464;2022-11-30T09:33:33;28.85;;;11.88;;
29838;SDS011;18669;53.356;-1.464;2022-11-30T09:36:03;27.50;;;11.35;;
29838;SDS011;18669;53.356;-1.464;2022-11-30T09:38:31;30.88;;;11.27;;
29838;SDS011;18669;53.356;-1.464;2022-11-30T09:40:58;35.30;;;11.05;;
29838;SDS011;18669;53.356;-1.464;2022-11-30T09:46:36;28.63;;;11.27;;
29838;SDS011;18669;53.356;-1.464;2022-11-30T09:49:11;24.58;;;11.25;;
29838;SDS011;18669;53.356;-1.464;2022-11-30T09:51:48;31.25;;;12.18;;
29838;SDS011;18669;53.356;-1.464;2022-11-30T09:54:23;32.38;;;15.05;;
29838;SDS011;18669;53.356;-1.464;2022-11-30T09:57:04;30.48;;;13.77;;
29838;SDS011;18669;53.356;-1.464;2022-11-30T09:59:45;35.80;;;12.95;;
29838;SDS011;18669;53.356;-1.464;2022-11-30T10:02:18;37.58;;;12.98;;
29838;SDS011;18669;53.356;-1.464;2022-11-30T10:04:56;31.50;;;14.05;;
29838;SDS011;18669;53.356;-1.464;2022-11-30T10:20:24;33.65;;;13.10;;
29838;SDS011;18669;53.356;-1.464;2022-11-30T10:25:47;33.47;;;12.70;;
29838;SDS011;18669;53.356;-1.464;2022-11-30T10:28:18;34.83;;;14.82;;
29838;SDS011;18669;53.356;-1.464;2022-11-30T10:31:11;31.23;;;13.40;;
29838;SDS011;18669;53.356;-1.464;2022-11-30T10:33:43;39.17;;;16.17;;
29838;SDS011;18669;53.356;-1.464;2022-11-30T10:39:03;35.58;;;13.80;;
29838;SDS011;18669;53.356;-1.464;2022-11-30T10:41:43;32.70;;;12.70;;
29838;SDS011;18669;53.356;-1.464;2022-11-30T10:44:26;38.00;;;14.48;;
29838;SDS011;18669;53.356;-1.464;2022-11-30T10:47:02;35.65;;;12.98;;
29838;SDS011;18669;53.356;-1.464;2022-11-30T10:49:29;40.38;;;15.98;;
29838;SDS011;18669;53.356;-1.464;2022-11-30T10:51:59;36.22;;;15.77;;
29838;SDS011;18669;53.356;-1.464;2022-11-30T10:54:29;32.80;;;13.02;;
29838;SDS011;18669;53.356;-1.464;2022-11-30T10:57:00;34.80;;;13.77;;
29838;SDS011;18669;53.356;-1.464;2022-11-30T10:59:37;43.15;;;15.45;;
29838;SDS011;18669;53.356;-1.464;2022-11-30T11:05:07;45.97;;;16.45;;
29838;SDS011;18669;53.356;-1.464;2022-11-30T11:10:16;37.25;;;14.98;;
29838;SDS011;18669;53.356;-1.464;2022-11-30T11:12:50;41.22;;;15.82;;
29838;SDS011;18669;53.356;-1.464;2022-11-30T11:15:20;42.38;;;16.20;;
29838;SDS011;18669;53.356;-1.464;2022-11-30T11:17:51;43.35;;;16.15;;
29838;SDS011;18669;53.356;-1.464;2022-11-30T11:23:01;41.45;;;15.45;;
29838;SDS011;18669;53.356;-1.464;2022-11-30T11:25:32;51.38;;;18.48;;
29838;SDS011;18669;53.356;-1.464;2022-11-30T11:28:02;49.38;;;16.65;;
29838;SDS011;18669;53.356;-1.464;2022-11-30T11:30:34;48.08;;;15.70;;
29838;SDS011;18669;53.356;-1.464;2022-11-30T11:35:42;42.45;;;16.58;;
29838;SDS011;18669;53.356;-1.464;2022-11-30T11:43:33;47.20;;;16.38;;
29838;SDS011;18669;53.356;-1.464;2022-11-30T11:46:20;46.60;;;17.85;;
29838;SDS011;18669;53.356;-1.464;2022-11-30T11:49:17;49.78;;;18.25;;
29838;SDS011;18669;53.356;-1.464;2022-11-30T11:51:45;58.05;;;18.83;;
29838;SDS011;18669;53.356;-1.464;2022-11-30T11:54:18;50.63;;;18.42;;
29838;SDS011;18669;53.356;-1.464;2022-11-30T11:56:52;52.88;;;18.50;;
29838;SDS011;18669;53.356;-1.464;2022-11-30T11:59:43;57.95;;;19.58;;
29838;SDS011;18669;53.356;-1.464;2022-11-30T12:02:37;56.90;;;18.50;;
29838;SDS011;18669;53.356;-1.464;2022-11-30T12:05:21;49.25;;;18.05;;
29838;SDS011;18669;53.356;-1.464;2022-11-30T12:13:18;52.90;;;18.67;;
29838;SDS011;18669;53.356;-1.464;2022-11-30T12:18:29;54.20;;;18.35;;
29838;SDS011;18669;53.356;-1.464;2022-11-30T12:27:11;59.75;;;18.00;;
29838;SDS011;18669;53.356;-1.464;2022-11-30T12:30:06;57.60;;;18.13;;
29838;SDS011;18669;53.356;-1.464;2022-11-30T12:54:57;49.20;;;17.58;;
29838;SDS011;18669;53.356;-1.464;2022-11-30T12:57:48;50.80;;;17.90;;
29838;SDS011;18669;53.356;-1.464;2022-11-30T13:00:22;60.65;;;17.77;;
29838;SDS011;18669;53.356;-1.464;2022-11-30T13:05:47;57.92;;;19.63;;
29838;SDS011;18669;53.356;-1.464;2022-11-30T13:08:24;70.20;;;25.58;;
29838;SDS011;18669;53.356;-1.464;2022-11-30T13:10:55;66.68;;;24.20;;
29838;SDS011;18669;53.356;-1.464;2022-11-30T13:13:31;53.75;;;18.50;;
29838;SDS011;18669;53.356;-1.464;2022-11-30T13:16:02;54.03;;;17.10;;
29838;SDS011;18669;53.356;-1.464;2022-11-30T13:18:31;55.95;;;17.98;;
29838;SDS011;18669;53.356;-1.464;2022-11-30T13:21:04;50.00;;;17.02;;
29838;SDS011;18669;53.356;-1.464;2022-11-30T13:23:57;59.90;;;18.23;;
29838;SDS011;18669;53.356;-1.464;2022-11-30T13:32:15;58.92;;;18.92;;
29838;SDS011;18669;53.356;-1.464;2022-11-30T13:34:42;53.35;;;18.83;;
29838;SDS011;18669;53.356;-1.464;2022-11-30T13:47:37;51.08;;;18.13;;
29838;SDS011;18669;53.356;-1.464;2022-11-30T13:50:06;58.40;;;18.08;;
29838;SDS011;18669;53.356;-1.464;2022-11-30T13:58:14;53.53;;;17.98;;
29838;SDS011;18669;53.356;-1.464;2022-11-30T14:01:01;54.75;;;19.30;;
29838;SDS011;18669;53.356;-1.464;2022-11-30T14:04:05;52.83;;;18.33;;
29838;SDS011;18669;53.356;-1.464;2022-11-30T14:11:43;45.47;;;17.63;;
29838;SDS011;18669;53.356;-1.464;2022-11-30T14:17:12;40.85;;;15.57;;
29838;SDS011;18669;53.356;-1.464;2022-11-30T14:19:59;41.42;;;15.70;;
29838;SDS011;18669;53.356;-1.464;2022-11-30T14:22:35;36.67;;;15.63;;
29838;SDS011;18669;53.356;-1.464;2022-11-30T14:25:11;34.00;;;13.40;;
29838;SDS011;18669;53.356;-1.464;2022-11-30T14:27:41;40.85;;;14.93;;
29838;SDS011;18669;53.356;-1.464;2022-11-30T14:30:14;39.88;;;15.70;;
29838;SDS011;18669;53.356;-1.464;2022-11-30T14:32:43;40.03;;;15.43;;
29838;SDS011;18669;53.356;-1.464;2022-11-30T14:35:17;39.30;;;15.10;;
29838;SDS011;18669;53.356;-1.464;2022-11-30T14:37:50;39.22;;;13.93;;
29838;SDS011;18669;53.356;-1.464;2022-11-30T14:40:19;32.33;;;14.68;;
29838;SDS011;18669;53.356;-1.464;2022-11-30T14:42:54;39.30;;;17.58;;
29838;SDS011;18669;53.356;-1.464;2022-11-30T14:45:26;39.50;;;14.95;;
29838;SDS011;18669;53.356;-1.464;2022-11-30T14:50:44;37.38;;;14.38;;
29838;SDS011;18669;53.356;-1.464;2022-11-30T14:55:44;31.80;;;12.45;;
29838;SDS011;18669;53.356;-1.464;2022-11-30T14:58:41;31.58;;;14.10;;
29838;SDS011;18669;53.356;-1.464;2022-11-30T15:01:29;31.55;;;12.70;;
29838;SDS011;18669;53.356;-1.464;2022-11-30T15:04:05;31.45;;;13.73;;
29838;SDS011;18669;53.356;-1.464;2022-11-30T15:06:36;30.05;;;12.93;;
29838;SDS011;18669;53.356;-1.464;2022-11-30T15:09:03;29.92;;;13.85;;
29838;SDS011;18669;53.356;-1.464;2022-11-30T15:11:38;32.30;;;14.80;;
29838;SDS011;18669;53.356;-1.464;2022-11-30T15:14:08;29.48;;;14.35;;
29838;SDS011;18669;53.356;-1.464;2022-11-30T15:16:48;31.08;;;15.15;;
29838;SDS011;18669;53.356;-1.464;2022-11-30T15:19:22;31.38;;;15.10;;
29838;SDS011;18669;53.356;-1.464;2022-11-30T15:21:55;33.58;;;15.20;;
29838;SDS011;18669;53.356;-1.464;2022-11-30T15:24:22;28.88;;;13.32;;
29838;SDS011;18669;53.356;-1.464;2022-11-30T15:31:47;28.25;;;13.02;;
29838;SDS011;18669;53.356;-1.464;2022-11-30T15:37:01;30.65;;;14.13;;
29838;SDS011;18669;53.356;-1.464;2022-11-30T15:39:29;31.00;;;14.30;;
29838;SDS011;18669;53.356;-1.464;2022-11-30T15:41:58;33.15;;;14.80;;
29838;SDS011;18669;53.356;-1.464;2022-11-30T15:47:02;30.73;;;14.45;;
29838;SDS011;18669;53.356;-1.464;2022-11-30T15:49:30;36.38;;;17.35;;
29838;SDS011;18669;53.356;-1.464;2022-11-30T15:52:04;29.88;;;15.75;;
29838;SDS011;18669;53.356;-1.464;2022-11-30T15:54:53;29.17;;;14.13;;
29838;SDS011;18669;53.356;-1.464;2022-11-30T15:57:22;34.67;;;15.38;;
29838;SDS011;18669;53.356;-1.464;2022-11-30T16:02:37;30.77;;;13.05;;
29838;SDS011;18669;53.356;-1.464;2022-11-30T16:07:49;30.40;;;11.73;;
29838;SDS011;18669;53.356;-1.464;2022-11-30T16:10:22;31.58;;;12.27;;
29838;SDS011;18669;53.356;-1.464;2022-11-30T16:12:50;28.35;;;12.80;;
29838;SDS011;18669;53.356;-1.464;2022-11-30T16:17:46;31.80;;;12.75;;
29838;SDS011;18669;53.356;-1.464;2022-11-30T16:20:13;26.95;;;11.85;;
29838;SDS011;18669;53.356;-1.464;2022-11-30T16:22:48;26.52;;;13.02;;
29838;SDS011;18669;53.356;-1.464;2022-11-30T16:25:27;28.17;;;12.68;;
29838;SDS011;18669;53.356;-1.464;2022-11-30T16:27:56;27.77;;;13.55;;
29838;SDS011;18669;53.356;-1.464;2022-11-30T16:30:23;30.42;;;12.48;;
29838;SDS011;18669;53.356;-1.464;2022-11-30T16:32:49;24.40;;;11.25;;
29838;SDS011;18669;53.356;-1.464;2022-11-30T16:35:23;30.65;;;14.65;;
29838;SDS011;18669;53.356;-1.464;2022-11-30T16:37:55;37.17;;;15.80;;
29838;SDS011;18669;53.356;-1.464;2022-11-30T16:40:21;29.02;;;13.35;;
29838;SDS011;18669;53.356;-1.464;2022-11-30T16:42:47;36.38;;;15.55;;
29838;SDS011;18669;53.356;-1.464;2022-11-30T16:45:22;31.98;;;13.90;;
29838;SDS011;18669;53.356;-1.464;2022-11-30T16:47:50;30.77;;;13.93;;
29838;SDS011;18669;53.356;-1.464;2022-11-30T16:50:17;33.20;;;13.98;;
29838;SDS011;18669;53.356;-1.464;2022-11-30T16:52:45;30.75;;;12.80;;
29838;SDS011;18669;53.356;-1.464;2022-11-30T16:57:41;31.90;;;14.10;;
29838;SDS011;18669;53.356;-1.464;2022-11-30T17:00:09;31.52;;;14.50;;
29838;SDS011;18669;53.356;-1.464;2022-11-30T17:02:37;38.38;;;15.60;;
29838;SDS011;18669;53.356;-1.464;2022-11-30T17:05:09;37.90;;;15.43;;
29838;SDS011;18669;53.356;-1.464;2022-11-30T17:07:36;29.42;;;14.77;;
29838;SDS011;18669;53.356;-1.464;2022-11-30T17:10:03;41.83;;;18.88;;
29838;SDS011;18669;53.356;-1.464;2022-11-30T17:12:30;36.53;;;16.77;;
29838;SDS011;18669;53.356;-1.464;2022-11-30T17:14:57;47.65;;;17.70;;
29838;SDS011;18669;53.356;-1.464;2022-11-30T17:17:23;39.60;;;17.38;;
29838;SDS011;18669;53.356;-1.464;2022-11-30T17:19:49;38.75;;;16.92;;
29838;SDS011;18669;53.356;-1.464;2022-11-30T17:22:15;38.92;;;16.05;;
29838;SDS011;18669;53.356;-1.464;2022-11-30T17:24:41;36.75;;;16.58;;
29838;SDS011;18669;53.356;-1.464;2022-11-30T17:27:07;42.20;;;17.38;;
29838;SDS011;18669;53.356;-1.464;2022-11-30T17:29:34;36.15;;;16.77;;
29838;SDS011;18669;53.356;-1.464;2022-11-30T17:32:00;39.45;;;16.50;;
29838;SDS011;18669;53.356;-1.464;2022-11-30T17:36:52;38.92;;;17.50;;
29838;SDS011;18669;53.356;-1.464;2022-11-30T17:39:21;37.75;;;16.38;;
29838;SDS011;18669;53.356;-1.464;2022-11-30T17:41:48;34.00;;;16.95;;
29838;SDS011;18669;53.356;-1.464;2022-11-30T17:44:15;33.35;;;15.88;;
29838;SDS011;18669;53.356;-1.464;2022-11-30T17:46:41;33.38;;;14.68;;
29838;SDS011;18669;53.356;-1.464;2022-11-30T17:49:08;26.05;;;13.18;;
29838;SDS011;18669;53.356;-1.464;2022-11-30T17:51:34;25.85;;;12.98;;